createdAt,value
2024-02-27T00:00:04.533Z,983.65
2024-02-27T00:01:05.935Z,983.63
2024-02-27T00:02:07.628Z,983.69
2024-02-27T00:03:09.414Z,983.72
2024-02-27T00:04:11.062Z,983.76
2024-02-27T00:05:12.816Z,983.7
2024-02-27T00:06:14.632Z,983.74
2024-02-27T00:07:16.528Z,983.78
2024-02-27T00:08:18.092Z,983.78
2024-02-27T00:09:19.858Z,983.75
2024-02-27T00:10:21.444Z,983.74
2024-02-27T00:11:23.230Z,983.82
2024-02-27T00:12:24.958Z,983.82
2024-02-27T00:13:26.659Z,983.77
2024-02-27T00:14:28.392Z,983.81
2024-02-27T00:15:30.165Z,983.8
2024-02-27T00:16:31.886Z,983.81
2024-02-27T00:17:33.652Z,983.82
2024-02-27T00:18:35.501Z,983.85
2024-02-27T00:19:37.305Z,983.84
2024-02-27T00:20:38.825Z,983.9
2024-02-27T00:21:40.599Z,983.88
2024-02-27T00:22:42.263Z,983.9
2024-02-27T00:23:43.991Z,983.93
2024-02-27T00:24:45.825Z,983.92
2024-02-27T00:25:47.422Z,983.92
2024-02-27T00:26:49.201Z,983.92
2024-02-27T00:27:51.038Z,983.93
2024-02-27T00:28:52.701Z,983.9
2024-02-27T00:29:54.510Z,983.97
2024-02-27T00:30:56.141Z,984
2024-02-27T00:31:57.914Z,984.03
2024-02-27T00:32:59.951Z,984.06
2024-02-27T00:34:01.422Z,984
2024-02-27T00:35:03.129Z,984.08
2024-02-27T00:36:04.818Z,984.13
2024-02-27T00:37:06.546Z,984.12
2024-02-27T00:38:08.236Z,984.14
2024-02-27T00:39:10.004Z,984.14
2024-02-27T00:40:11.729Z,984.18
2024-02-27T00:41:13.475Z,984.14
2024-02-27T00:42:15.254Z,984.21
2024-02-27T00:43:16.916Z,984.12
2024-02-27T00:44:18.670Z,984.19
2024-02-27T00:45:20.478Z,984.22
2024-02-27T00:46:22.130Z,984.22
2024-02-27T00:47:23.859Z,984.2
2024-02-27T00:48:25.753Z,984.16
2024-02-27T00:49:27.466Z,984.18
2024-02-27T00:50:29.052Z,984.2
2024-02-27T00:51:30.811Z,984.19
2024-02-27T00:52:32.520Z,984.1
2024-02-27T00:53:34.326Z,984.16
2024-02-27T00:54:36.084Z,984.2
2024-02-27T00:55:37.731Z,984.16
2024-02-27T00:56:39.474Z,984.19
2024-02-27T00:57:41.292Z,984.22
2024-02-27T00:58:42.907Z,984.19
2024-02-27T00:59:44.678Z,984.24
2024-02-27T01:00:46.505Z,984.23
2024-02-27T01:01:48.136Z,984.25
2024-02-27T01:02:49.857Z,984.23
2024-02-27T01:03:51.612Z,984.22
2024-02-27T01:04:53.411Z,984.22
2024-02-27T01:05:55.319Z,984.23
2024-02-27T01:06:57.151Z,984.25
2024-02-27T01:07:58.542Z,984.25
2024-02-27T01:09:00.295Z,984.26
2024-02-27T01:10:01.993Z,984.33
2024-02-27T01:11:03.726Z,984.33
2024-02-27T01:12:05.554Z,984.31
2024-02-27T01:13:07.178Z,984.35
2024-02-27T01:14:08.908Z,984.28
2024-02-27T01:15:10.753Z,984.4
2024-02-27T01:16:12.399Z,984.35
2024-02-27T01:17:14.134Z,984.36
2024-02-27T01:18:15.996Z,984.4
2024-02-27T01:19:17.781Z,984.42
2024-02-27T01:20:19.333Z,984.43
2024-02-27T01:21:21.132Z,984.38
2024-02-27T01:22:22.780Z,984.46
2024-02-27T01:23:24.605Z,984.5
2024-02-27T01:24:26.309Z,984.47
2024-02-27T01:25:27.989Z,984.51
2024-02-27T01:26:29.719Z,984.45
2024-02-27T01:27:31.555Z,984.52
2024-02-27T01:28:33.200Z,984.53
2024-02-27T01:29:34.942Z,984.56
2024-02-27T01:30:36.708Z,984.55
2024-02-27T01:31:38.450Z,984.54
2024-02-27T01:32:40.215Z,984.51
2024-02-27T01:33:41.971Z,984.52
2024-02-27T01:34:43.883Z,984.5
2024-02-27T01:35:45.497Z,984.51
2024-02-27T01:36:47.170Z,984.51
2024-02-27T01:37:48.765Z,984.55
2024-02-27T01:38:50.725Z,984.56
2024-02-27T01:39:52.234Z,984.51
2024-02-27T01:40:53.993Z,984.53
2024-02-27T01:41:55.777Z,984.46
2024-02-27T01:42:57.468Z,984.5
2024-02-27T01:43:59.248Z,984.46
2024-02-27T01:45:01.016Z,984.51
2024-02-27T01:46:02.661Z,984.44
2024-02-27T01:47:05.698Z,984.5
2024-02-27T01:48:06.241Z,984.48
2024-02-27T01:49:07.935Z,984.42
2024-02-27T01:50:09.644Z,984.43
2024-02-27T01:51:11.362Z,984.4
2024-02-27T01:52:13.050Z,984.42
2024-02-27T01:53:14.771Z,984.39
2024-02-27T01:54:16.506Z,984.44
2024-02-27T01:55:18.247Z,984.48
2024-02-27T01:56:19.980Z,984.48
2024-02-27T01:57:21.706Z,984.52
2024-02-27T01:58:23.453Z,984.5
2024-02-27T01:59:25.199Z,984.53
2024-02-27T02:00:27.048Z,984.5
2024-02-27T02:01:28.707Z,984.47
2024-02-27T02:02:30.433Z,984.47
2024-02-27T02:03:32.188Z,984.49
2024-02-27T02:04:34.017Z,984.5
2024-02-27T02:05:35.639Z,984.53
2024-02-27T02:06:37.443Z,984.52
2024-02-27T02:07:39.041Z,984.6
2024-02-27T02:08:40.820Z,984.6
2024-02-27T02:09:42.555Z,984.57
2024-02-27T02:10:44.297Z,984.61
2024-02-27T02:11:45.993Z,984.61
2024-02-27T02:12:47.760Z,984.65
2024-02-27T02:13:49.451Z,984.66
2024-02-27T02:14:51.187Z,984.65
2024-02-27T02:15:54.268Z,984.61
2024-02-27T02:16:54.722Z,984.58
2024-02-27T02:17:56.711Z,984.59
2024-02-27T02:18:58.261Z,984.63
2024-02-27T02:20:00.029Z,984.6
2024-02-27T02:21:01.775Z,984.66
2024-02-27T02:22:03.521Z,984.67
2024-02-27T02:23:10.944Z,984.7
2024-02-27T02:24:12.004Z,984.68
2024-02-27T02:25:13.672Z,984.69
2024-02-27T02:26:15.528Z,984.71
2024-02-27T02:27:17.215Z,984.81
2024-02-27T02:28:18.897Z,984.73
2024-02-27T02:29:20.590Z,984.77
2024-02-27T02:30:22.485Z,984.75
2024-02-27T02:31:34.571Z,984.75
2024-02-27T02:32:36.107Z,984.81
2024-02-27T02:33:37.936Z,984.78
2024-02-27T02:34:39.633Z,984.86
2024-02-27T02:35:41.437Z,984.81
2024-02-27T02:36:43.126Z,984.81
2024-02-27T02:37:44.990Z,984.84
2024-02-27T02:38:46.476Z,984.81
2024-02-27T02:39:48.207Z,984.8
2024-02-27T02:40:49.926Z,984.8
2024-02-27T02:41:58.029Z,984.81
2024-02-27T02:42:59.565Z,984.9
2024-02-27T02:44:00.300Z,984.89
2024-02-27T02:45:02.064Z,984.92
2024-02-27T02:46:03.745Z,984.91
2024-02-27T02:47:05.488Z,984.87
2024-02-27T02:48:07.364Z,984.91
2024-02-27T02:49:09.030Z,984.94
2024-02-27T02:50:10.673Z,984.98
2024-02-27T02:51:12.479Z,984.97
2024-02-27T02:52:14.156Z,984.95
2024-02-27T02:53:15.880Z,984.94
2024-02-27T02:54:18.355Z,984.99
2024-02-27T02:55:19.339Z,985
2024-02-27T02:56:21.120Z,985.01
2024-02-27T02:57:22.850Z,984.98
2024-02-27T02:58:24.560Z,984.97
2024-02-27T02:59:26.283Z,985.02
2024-02-27T03:00:28.070Z,985
2024-02-27T03:01:29.858Z,985.03
2024-02-27T03:02:31.495Z,985.05
2024-02-27T03:03:33.304Z,985.09
2024-02-27T03:04:35.071Z,985.1
2024-02-27T03:05:36.711Z,985.12
2024-02-27T03:06:38.546Z,985.16
2024-02-27T03:07:40.162Z,985.18
2024-02-27T03:08:41.888Z,985.25
2024-02-27T03:09:43.655Z,985.25
2024-02-27T03:10:45.389Z,985.2
2024-02-27T03:11:47.195Z,985.24
2024-02-27T03:12:48.846Z,985.21
2024-02-27T03:13:50.597Z,985.22
2024-02-27T03:14:52.271Z,985.15
2024-02-27T03:15:54.065Z,985.22
2024-02-27T03:16:55.741Z,985.15
2024-02-27T03:17:57.611Z,985.2
2024-02-27T03:18:59.289Z,985.18
2024-02-27T03:20:01.001Z,985.19
2024-02-27T03:21:02.743Z,985.22
2024-02-27T03:22:04.425Z,985.2
2024-02-27T03:23:06.153Z,985.27
2024-02-27T03:24:07.891Z,985.25
2024-02-27T03:25:09.616Z,985.26
2024-02-27T03:26:11.355Z,985.32
2024-02-27T03:27:13.115Z,985.29
2024-02-27T03:28:14.826Z,985.28
2024-02-27T03:29:16.524Z,985.27
2024-02-27T03:30:18.299Z,985.22
2024-02-27T03:31:20.019Z,985.3
2024-02-27T03:32:21.745Z,985.26
2024-02-27T03:33:23.767Z,985.2
2024-02-27T03:34:25.404Z,985.29
2024-02-27T03:35:26.909Z,985.3
2024-02-27T03:36:28.763Z,985.28
2024-02-27T03:37:30.426Z,985.3
2024-02-27T03:38:32.150Z,985.35
2024-02-27T03:39:34.061Z,985.33
2024-02-27T03:40:35.822Z,985.32
2024-02-27T03:41:37.390Z,985.33
2024-02-27T03:42:39.198Z,985.33
2024-02-27T03:43:40.889Z,985.35
2024-02-27T03:44:42.562Z,985.33
2024-02-27T03:45:45.106Z,985.31
2024-02-27T03:46:46.028Z,985.37
2024-02-27T03:47:47.784Z,985.38
2024-02-27T03:48:49.825Z,985.36
2024-02-27T03:49:51.280Z,985.34
2024-02-27T03:50:52.956Z,985.36
2024-02-27T03:51:54.695Z,985.33
2024-02-27T03:52:56.409Z,985.36
2024-02-27T03:53:58.226Z,985.35
2024-02-27T03:55:00.037Z,985.36
2024-02-27T03:56:01.614Z,985.39
2024-02-27T03:57:03.399Z,985.38
2024-02-27T03:58:05.093Z,985.44
2024-02-27T03:59:06.991Z,985.47
2024-02-27T04:00:08.613Z,985.5
2024-02-27T04:01:10.320Z,985.52
2024-02-27T04:02:12.023Z,985.54
2024-02-27T04:03:13.791Z,985.55
2024-02-27T04:04:15.491Z,985.53
2024-02-27T04:05:17.306Z,985.54
2024-02-27T04:06:19.049Z,985.53
2024-02-27T04:07:20.791Z,985.5
2024-02-27T04:08:22.420Z,985.56
2024-02-27T04:09:24.265Z,985.64
2024-02-27T04:10:25.885Z,985.7
2024-02-27T04:11:27.874Z,985.72
2024-02-27T04:12:29.390Z,985.74
2024-02-27T04:13:33.058Z,985.81
2024-02-27T04:14:32.820Z,985.86
2024-02-27T04:15:34.610Z,985.86
2024-02-27T04:16:36.275Z,985.91
2024-02-27T04:18:39.970Z,985.94
2024-02-27T04:19:41.617Z,985.96
2024-02-27T04:20:43.398Z,985.93
2024-02-27T04:21:45.112Z,985.96
2024-02-27T04:22:46.660Z,985.98
2024-02-27T04:23:48.406Z,985.98
2024-02-27T04:24:50.154Z,985.92
2024-02-27T04:25:51.858Z,985.97
2024-02-27T04:26:53.610Z,985.98
2024-02-27T04:27:55.360Z,985.93
2024-02-27T04:28:57.079Z,985.93
2024-02-27T04:29:58.843Z,985.94
2024-02-27T04:31:01.970Z,985.98
2024-02-27T04:32:46.765Z,986.03
2024-02-27T04:37:51.351Z,986.06
2024-02-27T04:40:53.666Z,986.06
2024-02-27T04:42:28.290Z,986.02
2024-02-27T04:48:55.599Z,986.13
2024-02-27T04:49:57.266Z,986.17
2024-02-27T04:50:58.917Z,986.22
2024-02-27T04:52:00.620Z,986.21
2024-02-27T04:53:02.358Z,986.22
2024-02-27T04:54:04.134Z,986.19
2024-02-27T04:55:05.823Z,986.19
2024-02-27T04:56:07.569Z,986.19
2024-02-27T04:57:09.275Z,986.23
2024-02-27T04:58:10.979Z,986.25
2024-02-27T04:59:12.701Z,986.25
2024-02-27T05:00:14.475Z,986.31
2024-02-27T05:01:16.218Z,986.34
2024-02-27T05:02:17.876Z,986.32
2024-02-27T05:03:19.704Z,986.32
2024-02-27T05:04:21.539Z,986.33
2024-02-27T05:05:23.097Z,986.36
2024-02-27T05:06:24.884Z,986.39
2024-02-27T05:07:26.577Z,986.38
2024-02-27T05:08:28.210Z,986.4
2024-02-27T05:09:29.966Z,986.4
2024-02-27T05:10:31.689Z,986.44
2024-02-27T05:11:33.401Z,986.46
2024-02-27T05:12:35.163Z,986.48
2024-02-27T05:13:36.856Z,986.46
2024-02-27T05:14:38.604Z,986.51
2024-02-27T05:15:40.451Z,986.5
2024-02-27T05:16:42.041Z,986.56
2024-02-27T05:17:43.796Z,986.52
2024-02-27T05:18:45.693Z,986.56
2024-02-27T05:19:47.182Z,986.59
2024-02-27T05:20:48.921Z,986.56
2024-02-27T05:21:50.661Z,986.59
2024-02-27T05:22:52.373Z,986.64
2024-02-27T05:23:54.128Z,986.64
2024-02-27T05:24:55.855Z,986.6
2024-02-27T05:25:57.626Z,986.7
2024-02-27T05:26:59.316Z,986.69
2024-02-27T05:28:01.016Z,986.75
2024-02-27T05:29:02.718Z,986.77
2024-02-27T05:30:04.501Z,986.74
2024-02-27T05:31:06.183Z,986.8
2024-02-27T05:32:07.928Z,986.81
2024-02-27T05:33:09.713Z,986.77
2024-02-27T05:34:11.457Z,986.75
2024-02-27T05:35:13.228Z,986.77
2024-02-27T05:36:14.854Z,986.79
2024-02-27T05:37:16.540Z,986.78
2024-02-27T05:38:18.250Z,986.8
2024-02-27T05:39:20.034Z,986.85
2024-02-27T05:40:21.711Z,986.92
2024-02-27T05:41:23.440Z,986.93
2024-02-27T05:42:25.246Z,986.97
2024-02-27T05:43:26.875Z,986.97
2024-02-27T05:44:28.606Z,987.01
2024-02-27T05:45:30.388Z,987.03
2024-02-27T05:46:32.132Z,987.03
2024-02-27T05:47:33.999Z,986.99
2024-02-27T05:48:35.596Z,986.97
2024-02-27T05:49:37.255Z,987.04
2024-02-27T05:50:38.970Z,987.03
2024-02-27T05:51:40.818Z,987.01
2024-02-27T05:52:42.433Z,987
2024-02-27T05:53:44.165Z,987.03
2024-02-27T05:54:45.966Z,987.01
2024-02-27T05:55:47.614Z,986.98
2024-02-27T05:56:49.322Z,987.02
2024-02-27T05:57:51.091Z,987.04
2024-02-27T05:58:52.773Z,987.09
2024-02-27T05:59:54.516Z,987.12
2024-02-27T06:00:56.354Z,987.1
2024-02-27T06:01:57.950Z,987.02
2024-02-27T06:02:59.733Z,987.02
2024-02-27T06:04:01.542Z,986.98
2024-02-27T06:05:03.173Z,986.98
2024-02-27T06:06:04.978Z,986.99
2024-02-27T06:07:06.674Z,987.02
2024-02-27T06:08:08.304Z,987.01
2024-02-27T06:09:10.129Z,987.04
2024-02-27T06:10:11.756Z,987.1
2024-02-27T06:11:13.532Z,987.08
2024-02-27T06:12:15.251Z,987.11
2024-02-27T06:13:16.924Z,987.1
2024-02-27T06:14:18.661Z,987.1
2024-02-27T06:15:20.407Z,987.14
2024-02-27T06:16:22.096Z,987.15
2024-02-27T06:17:23.858Z,987.16
2024-02-27T06:18:25.712Z,987.14
2024-02-27T06:19:27.528Z,987.1
2024-02-27T06:20:29.047Z,987.06
2024-02-27T06:21:30.743Z,987.12
2024-02-27T06:22:32.456Z,987.11
2024-02-27T06:23:34.198Z,987.13
2024-02-27T06:24:36.007Z,987.17
2024-02-27T06:25:40.587Z,987.21
2024-02-27T06:26:39.406Z,987.22
2024-02-27T06:27:41.222Z,987.24
2024-02-27T06:28:42.822Z,987.27
2024-02-27T06:29:44.552Z,987.26
2024-02-27T06:30:46.500Z,987.33
2024-02-27T06:31:47.973Z,987.34
2024-02-27T06:32:49.783Z,987.35
2024-02-27T06:33:51.532Z,987.36
2024-02-27T06:34:53.343Z,987.38
2024-02-27T06:35:54.904Z,987.39
2024-02-27T06:36:56.608Z,987.41
2024-02-27T06:37:58.340Z,987.43
2024-02-27T06:39:00.121Z,987.48
2024-02-27T06:40:01.814Z,987.48
2024-02-27T06:41:03.521Z,987.52
2024-02-27T06:42:05.350Z,987.47
2024-02-27T06:43:07.050Z,987.48
2024-02-27T06:44:08.900Z,987.46
2024-02-27T06:45:10.473Z,987.42
2024-02-27T06:46:12.134Z,987.49
2024-02-27T06:47:13.884Z,987.52
2024-02-27T06:48:15.719Z,987.51
2024-02-27T06:49:22.796Z,987.53
2024-02-27T06:50:19.048Z,987.57
2024-02-27T06:51:20.793Z,987.57
2024-02-27T06:52:22.501Z,987.59
2024-02-27T06:53:24.213Z,987.6
2024-02-27T06:54:25.981Z,987.69
2024-02-27T06:55:27.669Z,987.7
2024-02-27T06:56:29.400Z,987.7
2024-02-27T06:57:31.202Z,987.75
2024-02-27T06:58:32.858Z,987.77
2024-02-27T06:59:34.611Z,987.77
2024-02-27T07:00:36.427Z,987.79
2024-02-27T07:01:37.983Z,987.83
2024-02-27T07:02:39.756Z,987.83
2024-02-27T07:03:41.582Z,987.85
2024-02-27T07:04:43.216Z,987.88
2024-02-27T07:05:52.858Z,987.87
2024-02-27T07:06:46.847Z,987.91
2024-02-27T07:07:48.374Z,987.96
2024-02-27T07:08:50.268Z,987.95
2024-02-27T07:09:51.844Z,988.01
2024-02-27T07:10:53.573Z,987.98
2024-02-27T07:11:55.286Z,987.99
2024-02-27T07:12:57.022Z,988.06
2024-02-27T07:13:58.722Z,988.11
2024-02-27T07:15:00.710Z,988.13
2024-02-27T07:16:02.179Z,988.15
2024-02-27T07:17:03.899Z,988.09
2024-02-27T07:18:05.758Z,988.13
2024-02-27T07:19:07.396Z,988.15
2024-02-27T07:20:09.082Z,988.16
2024-02-27T07:21:10.856Z,988.17
2024-02-27T07:22:12.537Z,988.21
2024-02-27T07:23:14.276Z,988.21
2024-02-27T07:24:15.997Z,988.22
2024-02-27T07:25:17.710Z,988.18
2024-02-27T07:26:19.486Z,988.22
2024-02-27T07:27:21.239Z,988.19
2024-02-27T07:28:27.267Z,988.26
2024-02-27T07:29:24.606Z,988.23
2024-02-27T07:30:26.496Z,988.26
2024-02-27T07:31:28.088Z,988.29
2024-02-27T07:32:29.804Z,988.31
2024-02-27T07:33:31.596Z,988.36
2024-02-27T07:34:33.273Z,988.36
2024-02-27T07:35:34.965Z,988.37
2024-02-27T07:36:36.822Z,988.36
2024-02-27T07:37:38.490Z,988.41
2024-02-27T07:38:40.138Z,988.41
2024-02-27T07:39:41.965Z,988.37
2024-02-27T07:40:43.640Z,988.26
2024-02-27T07:41:45.305Z,988.29
2024-02-27T07:42:47.111Z,988.4
2024-02-27T07:43:48.747Z,988.38
2024-02-27T07:44:50.489Z,988.4
2024-02-27T07:45:52.665Z,988.4
2024-02-27T07:46:53.950Z,988.38
2024-02-27T07:47:55.729Z,988.43
2024-02-27T07:48:57.530Z,988.4
2024-02-27T07:49:59.313Z,988.4
2024-02-27T07:51:00.889Z,988.38
2024-02-27T07:52:02.673Z,988.42
2024-02-27T07:53:04.300Z,988.4
2024-02-27T07:54:06.067Z,988.41
2024-02-27T07:55:07.752Z,988.38
2024-02-27T07:56:09.479Z,988.38
2024-02-27T07:57:11.218Z,988.33
2024-02-27T07:58:12.934Z,988.36
2024-02-27T07:59:14.645Z,988.35
2024-02-27T08:00:16.426Z,988.35
2024-02-27T08:01:18.293Z,988.34
2024-02-27T08:02:19.833Z,988.32
2024-02-27T08:03:21.683Z,988.33
2024-02-27T08:04:23.475Z,988.25
2024-02-27T08:05:24.988Z,988.26
2024-02-27T08:06:26.855Z,988.26
2024-02-27T08:07:28.400Z,988.25
2024-02-27T08:08:30.053Z,988.22
2024-02-27T08:09:31.794Z,988.27
2024-02-27T08:10:33.502Z,988.26
2024-02-27T08:11:35.350Z,988.24
2024-02-27T08:12:37.030Z,988.28
2024-02-27T08:13:38.690Z,988.27
2024-02-27T08:14:40.444Z,988.28
2024-02-27T08:15:42.206Z,988.28
2024-02-27T08:16:43.903Z,988.29
2024-02-27T08:17:45.645Z,988.25
2024-02-27T08:18:47.485Z,988.26
2024-02-27T08:19:49.250Z,988.29
2024-02-27T08:20:50.804Z,988.31
2024-02-27T08:21:52.588Z,988.27
2024-02-27T08:22:54.288Z,988.24
2024-02-27T08:23:56.018Z,988.26
2024-02-27T08:24:57.761Z,988.32
2024-02-27T08:25:59.509Z,988.25
2024-02-27T08:27:04.634Z,988.25
2024-02-27T08:28:02.967Z,988.23
2024-02-27T08:29:04.675Z,988.24
2024-02-27T08:30:06.437Z,988.22
2024-02-27T08:31:08.214Z,988.23
2024-02-27T08:32:09.976Z,988.18
2024-02-27T08:33:11.812Z,988.24
2024-02-27T08:34:13.488Z,988.17
2024-02-27T08:35:15.088Z,988.15
2024-02-27T08:36:16.824Z,988.15
2024-02-27T08:37:18.551Z,988.09
2024-02-27T08:38:20.284Z,988.15
2024-02-27T08:39:22.164Z,988.21
2024-02-27T08:40:23.771Z,988.21
2024-02-27T08:41:25.490Z,988.2
2024-02-27T08:42:27.450Z,988.23
2024-02-27T08:43:30.283Z,988.23
2024-02-27T08:44:30.727Z,988.24
2024-02-27T08:45:32.458Z,988.23
2024-02-27T08:46:34.125Z,988.29
2024-02-27T08:47:35.887Z,988.3
2024-02-27T08:48:37.727Z,988.29
2024-02-27T08:49:39.479Z,988.31
2024-02-27T08:50:41.085Z,988.31
2024-02-27T08:51:42.914Z,988.3
2024-02-27T08:52:44.567Z,988.3
2024-02-27T08:53:46.371Z,988.33
2024-02-27T08:54:48.059Z,988.33
2024-02-27T08:55:49.838Z,988.36
2024-02-27T08:56:51.507Z,988.3
2024-02-27T08:57:53.217Z,988.3
2024-02-27T08:58:54.954Z,988.34
2024-02-27T08:59:56.716Z,988.28
2024-02-27T09:00:58.581Z,988.23
2024-02-27T09:02:00.280Z,988.32
2024-02-27T09:03:01.933Z,988.29
2024-02-27T09:04:03.757Z,988.32
2024-02-27T09:05:05.364Z,988.27
2024-02-27T09:06:07.249Z,988.29
2024-02-27T09:07:08.842Z,988.28
2024-02-27T09:08:10.554Z,988.28
2024-02-27T09:09:12.316Z,988.24
2024-02-27T09:10:14.019Z,988.31
2024-02-27T09:11:15.791Z,988.28
2024-02-27T09:12:17.547Z,988.26
2024-02-27T09:13:19.218Z,988.28
2024-02-27T09:14:20.963Z,988.21
2024-02-27T09:15:22.735Z,988.13
2024-02-27T09:16:24.415Z,988.13
2024-02-27T09:17:26.147Z,988.16
2024-02-27T09:18:28.071Z,988.08
2024-02-27T09:19:30.029Z,988.14
2024-02-27T09:20:33.900Z,988.1
2024-02-27T09:22:35.100Z,988.12
2024-02-27T09:23:36.556Z,988.2
2024-02-27T09:24:38.513Z,988.15
2024-02-27T09:25:40.030Z,988.21
2024-02-27T09:26:41.803Z,988.2
2024-02-27T09:27:43.560Z,988.21
2024-02-27T09:28:45.292Z,988.23
2024-02-27T09:29:46.958Z,988.24
2024-02-27T09:30:48.739Z,988.27
2024-02-27T09:31:50.422Z,988.24
2024-02-27T09:32:52.209Z,988.24
2024-02-27T09:33:53.942Z,988.18
2024-02-27T09:34:55.771Z,988.17
2024-02-27T09:35:57.354Z,988.16
2024-02-27T09:36:59.080Z,988.22
2024-02-27T09:38:00.827Z,988.21
2024-02-27T09:39:02.641Z,988.22
2024-02-27T09:40:04.373Z,988.18
2024-02-27T09:41:06.058Z,988.21
2024-02-27T09:42:07.793Z,988.2
2024-02-27T09:43:09.614Z,988.23
2024-02-27T09:44:11.239Z,988.13
2024-02-27T09:45:13.007Z,988.18
2024-02-27T09:46:14.697Z,988.17
2024-02-27T09:47:16.436Z,988.24
2024-02-27T09:48:18.256Z,988.22
2024-02-27T09:49:32.459Z,988.23
2024-02-27T09:50:21.758Z,988.21
2024-02-27T09:51:23.381Z,988.22
2024-02-27T09:52:25.263Z,988.19
2024-02-27T09:53:26.822Z,988.18
2024-02-27T09:54:28.646Z,988.2
2024-02-27T09:55:30.460Z,988.22
2024-02-27T09:56:31.985Z,988.24
2024-02-27T09:57:33.895Z,988.26
2024-02-27T09:58:35.511Z,988.32
2024-02-27T09:59:37.222Z,988.36
2024-02-27T10:00:39.248Z,988.38
2024-02-27T10:01:40.906Z,988.42
2024-02-27T10:02:42.493Z,988.39
2024-02-27T10:03:44.221Z,988.39
2024-02-27T10:04:45.874Z,988.43
2024-02-27T10:05:47.655Z,988.4
2024-02-27T10:06:49.408Z,988.41
2024-02-27T10:07:51.126Z,988.39
2024-02-27T10:08:52.821Z,988.35
2024-02-27T10:09:54.543Z,988.41
2024-02-27T10:10:56.331Z,988.34
2024-02-27T10:11:58.016Z,988.36
2024-02-27T10:12:59.743Z,988.33
2024-02-27T10:14:01.479Z,988.34
2024-02-27T10:15:03.360Z,988.32
2024-02-27T10:16:04.961Z,988.37
2024-02-27T10:17:06.685Z,988.36
2024-02-27T10:18:08.574Z,988.39
2024-02-27T10:19:10.295Z,988.37
2024-02-27T10:20:12.341Z,988.43
2024-02-27T10:21:13.671Z,988.43
2024-02-27T10:22:15.375Z,988.44
2024-02-27T10:23:17.072Z,988.47
2024-02-27T10:24:18.842Z,988.45
2024-02-27T10:25:20.540Z,988.5
2024-02-27T10:26:22.278Z,988.49
2024-02-27T10:27:24.041Z,988.58
2024-02-27T10:28:25.753Z,988.57
2024-02-27T10:29:27.449Z,988.57
2024-02-27T10:30:29.341Z,988.64
2024-02-27T10:31:30.953Z,988.67
2024-02-27T10:32:32.745Z,988.65
2024-02-27T10:33:34.740Z,988.6
2024-02-27T10:34:36.360Z,988.61
2024-02-27T10:35:38.089Z,988.64
2024-02-27T10:36:41.856Z,988.64
2024-02-27T10:37:41.345Z,988.58
2024-02-27T10:38:43.062Z,988.62
2024-02-27T10:39:45.069Z,988.62
2024-02-27T10:40:46.554Z,988.62
2024-02-27T10:41:48.265Z,988.67
2024-02-27T10:42:50.081Z,988.6
2024-02-27T10:43:53.885Z,988.66
2024-02-27T10:44:53.482Z,988.63
2024-02-27T10:45:55.241Z,988.65
2024-02-27T10:46:56.969Z,988.65
2024-02-27T10:47:58.790Z,988.68
2024-02-27T10:49:00.607Z,988.7
2024-02-27T10:50:02.337Z,988.73
2024-02-27T10:51:03.935Z,988.72
2024-02-27T10:52:05.616Z,988.75
2024-02-27T10:53:07.349Z,988.72
2024-02-27T10:54:09.134Z,988.73
2024-02-27T10:55:10.821Z,988.74
2024-02-27T10:56:12.599Z,988.69
2024-02-27T10:57:14.400Z,988.68
2024-02-27T10:58:16.009Z,988.7
2024-02-27T10:59:17.889Z,988.68
2024-02-27T11:00:19.626Z,988.67
2024-02-27T11:01:21.430Z,988.64
2024-02-27T11:02:22.962Z,988.72
2024-02-27T11:03:24.754Z,988.69
2024-02-27T11:04:26.456Z,988.68
2024-02-27T11:05:28.225Z,988.66
2024-02-27T11:06:30.077Z,988.65
2024-02-27T11:07:31.708Z,988.63
2024-02-27T11:08:34.975Z,988.65
2024-02-27T11:09:35.175Z,988.59
2024-02-27T11:10:36.792Z,988.67
2024-02-27T11:11:38.545Z,988.65
2024-02-27T11:12:40.366Z,988.67
2024-02-27T11:13:41.994Z,988.63
2024-02-27T11:14:43.757Z,988.61
2024-02-27T11:15:45.609Z,988.58
2024-02-27T11:16:47.200Z,988.55
2024-02-27T11:17:49.050Z,988.6
2024-02-27T11:18:50.772Z,988.57
2024-02-27T11:19:52.467Z,988.54
2024-02-27T11:20:54.157Z,988.5
2024-02-27T11:21:55.893Z,988.53
2024-02-27T11:22:57.590Z,988.53
2024-02-27T11:23:59.348Z,988.47
2024-02-27T11:25:01.085Z,988.53
2024-02-27T11:26:02.843Z,988.48
2024-02-27T11:27:04.644Z,988.49
2024-02-27T11:28:06.309Z,988.52
2024-02-27T11:29:08.000Z,988.53
2024-02-27T11:30:09.821Z,988.55
2024-02-27T11:31:11.487Z,988.51
2024-02-27T11:32:13.242Z,988.55
2024-02-27T11:33:15.107Z,988.5
2024-02-27T11:34:16.770Z,988.54
2024-02-27T11:35:18.438Z,988.5
2024-02-27T11:36:20.240Z,988.54
2024-02-27T11:37:22.007Z,988.55
2024-02-27T11:38:23.628Z,988.46
2024-02-27T11:39:25.490Z,988.44
2024-02-27T11:40:27.136Z,988.49
2024-02-27T11:41:28.853Z,988.45
2024-02-27T11:42:30.588Z,988.44
2024-02-27T11:43:32.292Z,988.47
2024-02-27T11:44:36.809Z,988.51
2024-02-27T11:45:35.787Z,988.44
2024-02-27T11:46:37.680Z,988.43
2024-02-27T11:47:39.235Z,988.46
2024-02-27T11:48:41.290Z,988.41
2024-02-27T11:49:43.100Z,988.44
2024-02-27T11:50:44.406Z,988.42
2024-02-27T11:51:46.381Z,988.44
2024-02-27T11:52:47.904Z,988.42
2024-02-27T11:53:49.661Z,988.45
2024-02-27T11:54:51.413Z,988.46
2024-02-27T11:55:53.068Z,988.46
2024-02-27T11:56:54.815Z,988.47
2024-02-27T11:57:56.557Z,988.5
2024-02-27T11:58:58.644Z,988.48
2024-02-27T12:00:00.014Z,988.45
2024-02-27T12:01:01.823Z,988.5
2024-02-27T12:02:03.498Z,988.47
2024-02-27T12:03:05.237Z,988.49
2024-02-27T12:04:07.091Z,988.49
2024-02-27T12:05:08.736Z,988.43
2024-02-27T12:06:10.501Z,988.51
2024-02-27T12:07:12.169Z,988.51
2024-02-27T12:08:13.876Z,988.49
2024-02-27T12:09:15.716Z,988.5
2024-02-27T12:10:17.408Z,988.44
2024-02-27T12:11:19.144Z,988.47
2024-02-27T12:12:20.852Z,988.43
2024-02-27T12:13:25.032Z,988.47
2024-02-27T12:14:24.274Z,988.41
2024-02-27T12:15:26.041Z,988.43
2024-02-27T12:16:27.816Z,988.38
2024-02-27T12:17:29.688Z,988.43
2024-02-27T12:18:31.442Z,988.38
2024-02-27T12:19:33.066Z,988.44
2024-02-27T12:20:34.673Z,988.37
2024-02-27T12:21:36.508Z,988.41
2024-02-27T12:22:38.151Z,988.41
2024-02-27T12:23:39.896Z,988.39
2024-02-27T12:24:43.207Z,988.41
2024-02-27T12:25:43.359Z,988.41
2024-02-27T12:26:45.080Z,988.4
2024-02-27T12:27:46.912Z,988.39
2024-02-27T12:28:48.564Z,988.38
2024-02-27T12:29:50.279Z,988.41
2024-02-27T12:30:52.081Z,988.37
2024-02-27T12:31:53.788Z,988.37
2024-02-27T12:32:55.561Z,988.34
2024-02-27T12:33:57.471Z,988.29
2024-02-27T12:34:58.943Z,988.3
2024-02-27T12:36:00.673Z,988.27
2024-02-27T12:37:02.459Z,988.23
2024-02-27T12:38:04.186Z,988.18
2024-02-27T12:39:05.958Z,988.2
2024-02-27T12:40:07.629Z,988.19
2024-02-27T12:41:09.346Z,988.17
2024-02-27T12:42:11.131Z,988.18
2024-02-27T12:43:12.810Z,988.11
2024-02-27T12:44:14.567Z,988.14
2024-02-27T12:45:16.352Z,988.18
2024-02-27T12:46:18.065Z,988.19
2024-02-27T12:47:19.744Z,988.2
2024-02-27T12:48:21.821Z,988.18
2024-02-27T12:49:23.351Z,988.13
2024-02-27T12:50:24.986Z,988.18
2024-02-27T12:51:26.715Z,988.14
2024-02-27T12:52:28.422Z,988.16
2024-02-27T12:53:30.147Z,988.15
2024-02-27T12:54:31.917Z,988.15
2024-02-27T12:55:33.649Z,988.16
2024-02-27T12:56:35.364Z,988.15
2024-02-27T12:57:37.229Z,988.17
2024-02-27T12:58:38.807Z,988.13
2024-02-27T12:59:40.861Z,988.19
2024-02-27T13:00:42.392Z,988.19
2024-02-27T13:01:44.156Z,988.14
2024-02-27T13:02:45.749Z,988.16
2024-02-27T13:03:47.786Z,988.12
2024-02-27T13:04:49.231Z,988.18
2024-02-27T13:05:51.022Z,988.18
2024-02-27T13:06:52.727Z,988.12
2024-02-27T13:07:54.613Z,988.2